sensor_id;sensor_type;location;lat;lon;timestamp;P1;durP1;ratioP1;P2;durP2;ratioP2
56391;SDS011;42289;53.582;9.714;2022-07-21T00:00:18;20.70;;;12.25;;
56391;SDS011;42289;53.582;9.714;2022-07-21T00:02:46;17.88;;;12.68;;
56391;SDS011;42289;53.582;9.714;2022-07-21T00:05:14;15.93;;;11.15;;
56391;SDS011;42289;53.582;9.714;2022-07-21T00:07:40;18.73;;;12.02;;
56391;SDS011;42289;53.582;9.714;2022-07-21T00:10:07;19.20;;;11.45;;
56391;SDS011;42289;53.582;9.714;2022-07-21T00:12:34;22.02;;;11.98;;
56391;SDS011;42289;53.582;9.714;2022-07-21T00:15:01;17.95;;;11.40;;
56391;SDS011;42289;53.582;9.714;2022-07-21T00:17:28;20.10;;;11.52;;
56391;SDS011;42289;53.582;9.714;2022-07-21T00:19:54;20.75;;;11.60;;
56391;SDS011;42289;53.582;9.714;2022-07-21T00:22:22;21.42;;;12.25;;
56391;SDS011;42289;53.582;9.714;2022-07-21T00:24:48;20.25;;;11.77;;
56391;SDS011;42289;53.582;9.714;2022-07-21T00:27:14;20.05;;;11.82;;
56391;SDS011;42289;53.582;9.714;2022-07-21T00:29:41;17.90;;;11.73;;
56391;SDS011;42289;53.582;9.714;2022-07-21T00:32:07;18.58;;;11.80;;
56391;SDS011;42289;53.582;9.714;2022-07-21T00:34:34;23.25;;;12.32;;
56391;SDS011;42289;53.582;9.714;2022-07-21T00:37:00;19.25;;;12.57;;
56391;SDS011;42289;53.582;9.714;2022-07-21T00:39:28;21.73;;;12.88;;
56391;SDS011;42289;53.582;9.714;2022-07-21T00:41:54;20.17;;;11.70;;
56391;SDS011;42289;53.582;9.714;2022-07-21T00:44:21;18.55;;;12.38;;
56391;SDS011;42289;53.582;9.714;2022-07-21T00:46:49;22.48;;;12.43;;
56391;SDS011;42289;53.582;9.714;2022-07-21T00:49:15;20.00;;;11.98;;
56391;SDS011;42289;53.582;9.714;2022-07-21T00:51:42;18.70;;;12.48;;
56391;SDS011;42289;53.582;9.714;2022-07-21T00:54:08;20.42;;;12.32;;
56391;SDS011;42289;53.582;9.714;2022-07-21T00:56:36;24.27;;;12.57;;
56391;SDS011;42289;53.582;9.714;2022-07-21T00:59:02;21.67;;;12.43;;
56391;SDS011;42289;53.582;9.714;2022-07-21T01:01:29;20.92;;;12.20;;
56391;SDS011;42289;53.582;9.714;2022-07-21T01:03:55;20.63;;;12.48;;
56391;SDS011;42289;53.582;9.714;2022-07-21T01:06:23;20.23;;;12.05;;
56391;SDS011;42289;53.582;9.714;2022-07-21T01:08:50;22.45;;;12.98;;
56391;SDS011;42289;53.582;9.714;2022-07-21T01:11:17;20.15;;;12.35;;
56391;SDS011;42289;53.582;9.714;2022-07-21T01:13:46;20.23;;;12.30;;
56391;SDS011;42289;53.582;9.714;2022-07-21T01:16:13;20.45;;;12.15;;
56391;SDS011;42289;53.582;9.714;2022-07-21T01:18:40;18.77;;;12.48;;
56391;SDS011;42289;53.582;9.714;2022-07-21T01:21:13;23.85;;;12.77;;
56391;SDS011;42289;53.582;9.714;2022-07-21T01:23:52;23.70;;;12.93;;
56391;SDS011;42289;53.582;9.714;2022-07-21T01:26:19;23.38;;;12.90;;
56391;SDS011;42289;53.582;9.714;2022-07-21T01:28:46;21.38;;;13.02;;
56391;SDS011;42289;53.582;9.714;2022-07-21T01:31:12;25.55;;;14.32;;
56391;SDS011;42289;53.582;9.714;2022-07-21T01:33:39;24.13;;;14.50;;
56391;SDS011;42289;53.582;9.714;2022-07-21T01:36:06;23.98;;;13.93;;
56391;SDS011;42289;53.582;9.714;2022-07-21T01:38:34;25.17;;;14.00;;
56391;SDS011;42289;53.582;9.714;2022-07-21T01:41:24;24.50;;;15.25;;
56391;SDS011;42289;53.582;9.714;2022-07-21T01:46:25;26.67;;;15.45;;
56391;SDS011;42289;53.582;9.714;2022-07-21T01:48:51;26.52;;;15.27;;
56391;SDS011;42289;53.582;9.714;2022-07-21T01:51:18;25.27;;;15.15;;
56391;SDS011;42289;53.582;9.714;2022-07-21T01:53:45;27.17;;;15.40;;
56391;SDS011;42289;53.582;9.714;2022-07-21T01:56:12;20.45;;;13.70;;
56391;SDS011;42289;53.582;9.714;2022-07-21T01:58:38;26.15;;;13.95;;
56391;SDS011;42289;53.582;9.714;2022-07-21T02:01:05;23.45;;;14.50;;
56391;SDS011;42289;53.582;9.714;2022-07-21T02:03:32;23.35;;;14.23;;
56391;SDS011;42289;53.582;9.714;2022-07-21T02:06:02;23.00;;;14.32;;
56391;SDS011;42289;53.582;9.714;2022-07-21T02:08:28;23.70;;;13.27;;
56391;SDS011;42289;53.582;9.714;2022-07-21T02:10:56;27.65;;;13.70;;
56391;SDS011;42289;53.582;9.714;2022-07-21T02:13:23;24.88;;;13.43;;
56391;SDS011;42289;53.582;9.714;2022-07-21T02:15:50;19.83;;;11.95;;
56391;SDS011;42289;53.582;9.714;2022-07-21T02:18:16;19.77;;;11.77;;
56391;SDS011;42289;53.582;9.714;2022-07-21T02:20:43;21.85;;;11.75;;
56391;SDS011;42289;53.582;9.714;2022-07-21T02:23:12;19.55;;;11.77;;
56391;SDS011;42289;53.582;9.714;2022-07-21T02:25:39;20.85;;;11.38;;
56391;SDS011;42289;53.582;9.714;2022-07-21T02:28:06;19.30;;;11.57;;
56391;SDS011;42289;53.582;9.714;2022-07-21T02:30:33;19.35;;;11.63;;
56391;SDS011;42289;53.582;9.714;2022-07-21T02:32:59;23.77;;;11.63;;
56391;SDS011;42289;53.582;9.714;2022-07-21T02:35:26;22.30;;;11.38;;
56391;SDS011;42289;53.582;9.714;2022-07-21T02:37:52;21.13;;;11.18;;
56391;SDS011;42289;53.582;9.714;2022-07-21T02:40:19;20.15;;;11.00;;
56391;SDS011;42289;53.582;9.714;2022-07-21T02:42:46;21.45;;;10.77;;
56391;SDS011;42289;53.582;9.714;2022-07-21T02:45:14;21.13;;;10.25;;
56391;SDS011;42289;53.582;9.714;2022-07-21T02:47:47;19.42;;;10.88;;
56391;SDS011;42289;53.582;9.714;2022-07-21T02:50:14;20.90;;;10.90;;
56391;SDS011;42289;53.582;9.714;2022-07-21T02:52:41;20.45;;;10.82;;
56391;SDS011;42289;53.582;9.714;2022-07-21T02:55:08;23.95;;;11.35;;
56391;SDS011;42289;53.582;9.714;2022-07-21T02:57:35;16.13;;;10.25;;
56391;SDS011;42289;53.582;9.714;2022-07-21T03:00:02;19.33;;;11.02;;
56391;SDS011;42289;53.582;9.714;2022-07-21T03:02:30;20.52;;;11.15;;
56391;SDS011;42289;53.582;9.714;2022-07-21T03:04:57;17.23;;;9.93;;
56391;SDS011;42289;53.582;9.714;2022-07-21T03:07:23;20.95;;;11.43;;
56391;SDS011;42289;53.582;9.714;2022-07-21T03:09:49;20.63;;;11.00;;
56391;SDS011;42289;53.582;9.714;2022-07-21T03:12:16;22.88;;;10.77;;
56391;SDS011;42289;53.582;9.714;2022-07-21T03:14:42;22.70;;;10.55;;
56391;SDS011;42289;53.582;9.714;2022-07-21T03:17:09;21.30;;;10.38;;
56391;SDS011;42289;53.582;9.714;2022-07-21T03:19:36;20.10;;;10.40;;
56391;SDS011;42289;53.582;9.714;2022-07-21T03:22:03;22.15;;;10.10;;
56391;SDS011;42289;53.582;9.714;2022-07-21T03:24:29;19.50;;;10.77;;
56391;SDS011;42289;53.582;9.714;2022-07-21T03:26:56;17.27;;;10.45;;
56391;SDS011;42289;53.582;9.714;2022-07-21T03:29:22;18.20;;;10.50;;
56391;SDS011;42289;53.582;9.714;2022-07-21T03:31:49;19.85;;;10.20;;
56391;SDS011;42289;53.582;9.714;2022-07-21T03:34:16;19.65;;;10.07;;
56391;SDS011;42289;53.582;9.714;2022-07-21T03:36:43;17.40;;;9.55;;
56391;SDS011;42289;53.582;9.714;2022-07-21T03:39:10;19.02;;;9.63;;
56391;SDS011;42289;53.582;9.714;2022-07-21T03:41:36;20.08;;;9.55;;
56391;SDS011;42289;53.582;9.714;2022-07-21T03:44:02;20.42;;;9.38;;
56391;SDS011;42289;53.582;9.714;2022-07-21T03:46:29;17.13;;;9.82;;
56391;SDS011;42289;53.582;9.714;2022-07-21T03:48:55;19.50;;;9.27;;
56391;SDS011;42289;53.582;9.714;2022-07-21T03:51:22;18.40;;;8.90;;
56391;SDS011;42289;53.582;9.714;2022-07-21T03:53:49;20.92;;;9.18;;
56391;SDS011;42289;53.582;9.714;2022-07-21T03:56:16;18.67;;;8.90;;
56391;SDS011;42289;53.582;9.714;2022-07-21T03:58:42;19.15;;;9.20;;
56391;SDS011;42289;53.582;9.714;2022-07-21T04:01:09;15.52;;;8.25;;
56391;SDS011;42289;53.582;9.714;2022-07-21T04:03:35;18.58;;;8.40;;
56391;SDS011;42289;53.582;9.714;2022-07-21T04:06:01;14.27;;;8.30;;
56391;SDS011;42289;53.582;9.714;2022-07-21T04:08:28;18.50;;;8.23;;
56391;SDS011;42289;53.582;9.714;2022-07-21T04:10:56;19.75;;;9.07;;
56391;SDS011;42289;53.582;9.714;2022-07-21T04:13:23;22.65;;;7.97;;
56391;SDS011;42289;53.582;9.714;2022-07-21T04:15:50;17.75;;;8.35;;
56391;SDS011;42289;53.582;9.714;2022-07-21T04:18:16;15.80;;;7.75;;
56391;SDS011;42289;53.582;9.714;2022-07-21T04:20:43;18.27;;;8.43;;
56391;SDS011;42289;53.582;9.714;2022-07-21T04:23:09;21.52;;;8.02;;
56391;SDS011;42289;53.582;9.714;2022-07-21T04:25:35;14.07;;;8.05;;
56391;SDS011;42289;53.582;9.714;2022-07-21T04:28:05;17.65;;;7.88;;
56391;SDS011;42289;53.582;9.714;2022-07-21T04:30:32;17.98;;;7.78;;
56391;SDS011;42289;53.582;9.714;2022-07-21T04:32:59;20.77;;;8.15;;
56391;SDS011;42289;53.582;9.714;2022-07-21T04:35:25;15.45;;;7.53;;
56391;SDS011;42289;53.582;9.714;2022-07-21T04:37:51;15.80;;;7.65;;
56391;SDS011;42289;53.582;9.714;2022-07-21T04:40:18;18.55;;;8.07;;
56391;SDS011;42289;53.582;9.714;2022-07-21T04:42:44;17.98;;;7.90;;
56391;SDS011;42289;53.582;9.714;2022-07-21T04:45:13;18.00;;;7.43;;
56391;SDS011;42289;53.582;9.714;2022-07-21T04:47:41;19.90;;;7.53;;
56391;SDS011;42289;53.582;9.714;2022-07-21T04:50:09;16.27;;;7.40;;
56391;SDS011;42289;53.582;9.714;2022-07-21T04:52:36;15.80;;;7.80;;
56391;SDS011;42289;53.582;9.714;2022-07-21T04:55:02;17.25;;;8.15;;
56391;SDS011;42289;53.582;9.714;2022-07-21T04:57:30;18.92;;;7.68;;
56391;SDS011;42289;53.582;9.714;2022-07-21T04:59:56;15.90;;;7.47;;
56391;SDS011;42289;53.582;9.714;2022-07-21T05:02:24;17.90;;;8.07;;
56391;SDS011;42289;53.582;9.714;2022-07-21T05:04:50;19.00;;;8.13;;
56391;SDS011;42289;53.582;9.714;2022-07-21T05:07:17;19.13;;;8.00;;
56391;SDS011;42289;53.582;9.714;2022-07-21T05:09:43;21.48;;;7.32;;
56391;SDS011;42289;53.582;9.714;2022-07-21T05:12:10;17.70;;;7.20;;
56391;SDS011;42289;53.582;9.714;2022-07-21T05:14:36;16.73;;;8.05;;
56391;SDS011;42289;53.582;9.714;2022-07-21T05:17:03;14.75;;;7.20;;
56391;SDS011;42289;53.582;9.714;2022-07-21T05:19:31;20.63;;;7.80;;
56391;SDS011;42289;53.582;9.714;2022-07-21T05:21:57;21.48;;;9.55;;
56391;SDS011;42289;53.582;9.714;2022-07-21T05:24:23;13.90;;;8.63;;
56391;SDS011;42289;53.582;9.714;2022-07-21T05:26:50;19.00;;;7.88;;
56391;SDS011;42289;53.582;9.714;2022-07-21T05:29:16;19.08;;;8.20;;
56391;SDS011;42289;53.582;9.714;2022-07-21T05:31:43;22.88;;;8.75;;
56391;SDS011;42289;53.582;9.714;2022-07-21T05:34:09;18.17;;;8.60;;
56391;SDS011;42289;53.582;9.714;2022-07-21T05:36:37;18.80;;;7.95;;
56391;SDS011;42289;53.582;9.714;2022-07-21T05:39:04;21.42;;;7.90;;
56391;SDS011;42289;53.582;9.714;2022-07-21T05:41:30;16.50;;;7.63;;
56391;SDS011;42289;53.582;9.714;2022-07-21T05:43:56;14.88;;;8.07;;
56391;SDS011;42289;53.582;9.714;2022-07-21T05:46:23;17.80;;;8.57;;
56391;SDS011;42289;53.582;9.714;2022-07-21T05:48:49;19.38;;;8.75;;
56391;SDS011;42289;53.582;9.714;2022-07-21T05:51:16;18.30;;;8.40;;
56391;SDS011;42289;53.582;9.714;2022-07-21T05:53:43;21.27;;;9.25;;
56391;SDS011;42289;53.582;9.714;2022-07-21T05:56:10;21.85;;;9.15;;
56391;SDS011;42289;53.582;9.714;2022-07-21T05:58:36;20.45;;;8.68;;
56391;SDS011;42289;53.582;9.714;2022-07-21T06:01:03;22.73;;;9.30;;
56391;SDS011;42289;53.582;9.714;2022-07-21T06:03:37;18.40;;;9.20;;
56391;SDS011;42289;53.582;9.714;2022-07-21T06:06:05;21.30;;;9.38;;
56391;SDS011;42289;53.582;9.714;2022-07-21T06:08:31;19.25;;;9.25;;
56391;SDS011;42289;53.582;9.714;2022-07-21T06:10:59;22.13;;;9.70;;
56391;SDS011;42289;53.582;9.714;2022-07-21T06:13:26;19.23;;;9.05;;
56391;SDS011;42289;53.582;9.714;2022-07-21T06:15:52;21.58;;;9.55;;
56391;SDS011;42289;53.582;9.714;2022-07-21T06:18:19;21.30;;;9.23;;
56391;SDS011;42289;53.582;9.714;2022-07-21T06:20:45;19.63;;;9.43;;
56391;SDS011;42289;53.582;9.714;2022-07-21T06:23:12;16.40;;;9.52;;
56391;SDS011;42289;53.582;9.714;2022-07-21T06:25:38;20.52;;;9.18;;
56391;SDS011;42289;53.582;9.714;2022-07-21T06:28:06;19.25;;;10.30;;
56391;SDS011;42289;53.582;9.714;2022-07-21T06:30:32;26.30;;;10.68;;
56391;SDS011;42289;53.582;9.714;2022-07-21T06:32:59;22.17;;;10.52;;
56391;SDS011;42289;53.582;9.714;2022-07-21T06:35:25;21.00;;;11.05;;
56391;SDS011;42289;53.582;9.714;2022-07-21T06:37:52;25.05;;;12.90;;
56391;SDS011;42289;53.582;9.714;2022-07-21T06:40:18;25.20;;;11.98;;
56391;SDS011;42289;53.582;9.714;2022-07-21T06:42:45;22.55;;;12.85;;
56391;SDS011;42289;53.582;9.714;2022-07-21T06:45:13;25.23;;;12.30;;
56391;SDS011;42289;53.582;9.714;2022-07-21T06:47:39;29.52;;;11.57;;
56391;SDS011;42289;53.582;9.714;2022-07-21T06:50:07;21.17;;;11.50;;
56391;SDS011;42289;53.582;9.714;2022-07-21T06:52:34;24.30;;;13.02;;
56391;SDS011;42289;53.582;9.714;2022-07-21T06:55:01;23.13;;;12.20;;
56391;SDS011;42289;53.582;9.714;2022-07-21T06:57:28;22.83;;;12.30;;
56391;SDS011;42289;53.582;9.714;2022-07-21T06:59:55;23.65;;;12.60;;
56391;SDS011;42289;53.582;9.714;2022-07-21T07:02:23;23.83;;;12.77;;
56391;SDS011;42289;53.582;9.714;2022-07-21T07:04:49;26.60;;;13.40;;
56391;SDS011;42289;53.582;9.714;2022-07-21T07:07:16;25.00;;;13.38;;
56391;SDS011;42289;53.582;9.714;2022-07-21T07:09:42;28.90;;;13.50;;
56391;SDS011;42289;53.582;9.714;2022-07-21T07:12:09;26.67;;;14.90;;
56391;SDS011;42289;53.582;9.714;2022-07-21T07:14:35;27.80;;;14.65;;
56391;SDS011;42289;53.582;9.714;2022-07-21T07:17:02;24.25;;;14.07;;
56391;SDS011;42289;53.582;9.714;2022-07-21T07:19:30;31.08;;;15.93;;
56391;SDS011;42289;53.582;9.714;2022-07-21T07:21:58;29.63;;;16.00;;
56391;SDS011;42289;53.582;9.714;2022-07-21T07:24:25;25.00;;;15.80;;
56391;SDS011;42289;53.582;9.714;2022-07-21T07:26:51;28.95;;;15.35;;
56391;SDS011;42289;53.582;9.714;2022-07-21T07:29:17;27.48;;;16.13;;
56391;SDS011;42289;53.582;9.714;2022-07-21T07:31:44;30.80;;;16.42;;
56391;SDS011;42289;53.582;9.714;2022-07-21T07:34:10;31.52;;;16.48;;
56391;SDS011;42289;53.582;9.714;2022-07-21T07:36:38;30.92;;;16.92;;
56391;SDS011;42289;53.582;9.714;2022-07-21T07:39:04;26.33;;;16.38;;
56391;SDS011;42289;53.582;9.714;2022-07-21T07:41:31;24.85;;;17.15;;
56391;SDS011;42289;53.582;9.714;2022-07-21T07:43:57;31.35;;;17.42;;
56391;SDS011;42289;53.582;9.714;2022-07-21T07:46:25;28.65;;;17.58;;
56391;SDS011;42289;53.582;9.714;2022-07-21T07:48:51;33.13;;;19.08;;
56391;SDS011;42289;53.582;9.714;2022-07-21T07:51:18;31.75;;;18.58;;
56391;SDS011;42289;53.582;9.714;2022-07-21T07:53:46;32.17;;;18.30;;
56391;SDS011;42289;53.582;9.714;2022-07-21T07:56:12;30.77;;;16.95;;
56391;SDS011;42289;53.582;9.714;2022-07-21T07:58:39;29.30;;;17.27;;
56391;SDS011;42289;53.582;9.714;2022-07-21T08:01:05;27.65;;;17.10;;
56391;SDS011;42289;53.582;9.714;2022-07-21T08:03:32;27.45;;;17.02;;
56391;SDS011;42289;53.582;9.714;2022-07-21T08:05:59;27.00;;;16.73;;
56391;SDS011;42289;53.582;9.714;2022-07-21T08:08:28;26.17;;;17.02;;
56391;SDS011;42289;53.582;9.714;2022-07-21T08:10:56;30.38;;;17.17;;
56391;SDS011;42289;53.582;9.714;2022-07-21T08:13:23;26.88;;;16.73;;
56391;SDS011;42289;53.582;9.714;2022-07-21T08:15:51;26.00;;;16.25;;
56391;SDS011;42289;53.582;9.714;2022-07-21T08:18:17;25.77;;;15.82;;
56391;SDS011;42289;53.582;9.714;2022-07-21T08:20:45;24.98;;;16.45;;
56391;SDS011;42289;53.582;9.714;2022-07-21T08:23:12;30.40;;;17.58;;
56391;SDS011;42289;53.582;9.714;2022-07-21T08:25:39;26.67;;;16.17;;
56391;SDS011;42289;53.582;9.714;2022-07-21T08:28:08;25.73;;;16.75;;
56391;SDS011;42289;53.582;9.714;2022-07-21T08:30:35;27.10;;;16.90;;
56391;SDS011;42289;53.582;9.714;2022-07-21T08:33:02;28.73;;;16.88;;
56391;SDS011;42289;53.582;9.714;2022-07-21T08:35:29;23.85;;;15.07;;
56391;SDS011;42289;53.582;9.714;2022-07-21T08:37:58;23.83;;;15.15;;
56391;SDS011;42289;53.582;9.714;2022-07-21T08:40:25;26.63;;;15.88;;
56391;SDS011;42289;53.582;9.714;2022-07-21T08:42:53;23.70;;;14.57;;
56391;SDS011;42289;53.582;9.714;2022-07-21T08:45:22;21.27;;;14.73;;
56391;SDS011;42289;53.582;9.714;2022-07-21T08:47:49;24.92;;;14.80;;
56391;SDS011;42289;53.582;9.714;2022-07-21T08:50:17;23.30;;;15.63;;
56391;SDS011;42289;53.582;9.714;2022-07-21T08:52:44;24.30;;;15.63;;
56391;SDS011;42289;53.582;9.714;2022-07-21T08:55:11;21.95;;;14.15;;
56391;SDS011;42289;53.582;9.714;2022-07-21T08:57:37;26.15;;;15.85;;
56391;SDS011;42289;53.582;9.714;2022-07-21T09:00:05;23.83;;;14.98;;
56391;SDS011;42289;53.582;9.714;2022-07-21T09:02:34;21.88;;;15.27;;
56391;SDS011;42289;53.582;9.714;2022-07-21T09:05:04;26.33;;;16.27;;
56391;SDS011;42289;53.582;9.714;2022-07-21T09:07:45;21.70;;;14.68;;
56391;SDS011;42289;53.582;9.714;2022-07-21T09:10:13;23.15;;;15.80;;
56391;SDS011;42289;53.582;9.714;2022-07-21T09:12:47;27.00;;;16.67;;
56391;SDS011;42289;53.582;9.714;2022-07-21T09:15:16;24.13;;;14.57;;
56391;SDS011;42289;53.582;9.714;2022-07-21T09:17:45;23.27;;;15.25;;
56391;SDS011;42289;53.582;9.714;2022-07-21T09:23:03;22.17;;;15.15;;
56391;SDS011;42289;53.582;9.714;2022-07-21T09:25:36;24.48;;;15.07;;
56391;SDS011;42289;53.582;9.714;2022-07-21T09:28:08;19.95;;;14.60;;
56391;SDS011;42289;53.582;9.714;2022-07-21T09:30:46;20.83;;;14.02;;
56391;SDS011;42289;53.582;9.714;2022-07-21T09:33:22;19.40;;;13.70;;
56391;SDS011;42289;53.582;9.714;2022-07-21T09:35:55;20.30;;;13.85;;
56391;SDS011;42289;53.582;9.714;2022-07-21T09:38:23;18.80;;;13.63;;
56391;SDS011;42289;53.582;9.714;2022-07-21T09:40:49;18.73;;;12.68;;
56391;SDS011;42289;53.582;9.714;2022-07-21T09:43:29;20.48;;;14.02;;
56391;SDS011;42289;53.582;9.714;2022-07-21T09:45:59;19.40;;;13.85;;
56391;SDS011;42289;53.582;9.714;2022-07-21T09:48:31;19.48;;;13.00;;
56391;SDS011;42289;53.582;9.714;2022-07-21T09:53:48;17.88;;;13.25;;
56391;SDS011;42289;53.582;9.714;2022-07-21T09:56:19;21.42;;;13.90;;
56391;SDS011;42289;53.582;9.714;2022-07-21T09:58:47;19.35;;;13.07;;
56391;SDS011;42289;53.582;9.714;2022-07-21T10:01:15;19.45;;;13.88;;
56391;SDS011;42289;53.582;9.714;2022-07-21T10:03:44;18.17;;;13.23;;
56391;SDS011;42289;53.582;9.714;2022-07-21T10:06:12;16.20;;;12.50;;
56391;SDS011;42289;53.582;9.714;2022-07-21T10:08:41;17.13;;;11.52;;
56391;SDS011;42289;53.582;9.714;2022-07-21T10:11:09;18.95;;;13.38;;
56391;SDS011;42289;53.582;9.714;2022-07-21T10:13:36;17.02;;;12.20;;
56391;SDS011;42289;53.582;9.714;2022-07-21T10:16:04;16.52;;;11.70;;
56391;SDS011;42289;53.582;9.714;2022-07-21T10:18:32;16.90;;;11.70;;
56391;SDS011;42289;53.582;9.714;2022-07-21T10:21:08;18.00;;;13.43;;
56391;SDS011;42289;53.582;9.714;2022-07-21T10:23:40;18.52;;;13.23;;
56391;SDS011;42289;53.582;9.714;2022-07-21T10:26:08;17.25;;;12.27;;
56391;SDS011;42289;53.582;9.714;2022-07-21T10:28:35;16.42;;;12.52;;
56391;SDS011;42289;53.582;9.714;2022-07-21T10:31:11;14.95;;;11.85;;
56391;SDS011;42289;53.582;9.714;2022-07-21T10:33:56;13.13;;;10.88;;
56391;SDS011;42289;53.582;9.714;2022-07-21T10:36:39;13.40;;;9.52;;
56391;SDS011;42289;53.582;9.714;2022-07-21T10:39:20;9.02;;;7.32;;
56391;SDS011;42289;53.582;9.714;2022-07-21T10:41:51;9.48;;;7.28;;
56391;SDS011;42289;53.582;9.714;2022-07-21T10:47:06;8.95;;;6.55;;
56391;SDS011;42289;53.582;9.714;2022-07-21T10:49:41;9.30;;;6.95;;
56391;SDS011;42289;53.582;9.714;2022-07-21T10:55:16;10.45;;;7.57;;
56391;SDS011;42289;53.582;9.714;2022-07-21T10:58:08;8.70;;;6.93;;
56391;SDS011;42289;53.582;9.714;2022-07-21T11:00:36;7.82;;;6.57;;
56391;SDS011;42289;53.582;9.714;2022-07-21T11:03:03;6.97;;;5.68;;
56391;SDS011;42289;53.582;9.714;2022-07-21T11:05:38;6.88;;;5.90;;
56391;SDS011;42289;53.582;9.714;2022-07-21T11:08:43;8.15;;;5.85;;
56391;SDS011;42289;53.582;9.714;2022-07-21T11:11:13;7.88;;;5.85;;
56391;SDS011;42289;53.582;9.714;2022-07-21T11:14:03;7.22;;;5.60;;
56391;SDS011;42289;53.582;9.714;2022-07-21T11:19:28;8.07;;;6.22;;
56391;SDS011;42289;53.582;9.714;2022-07-21T11:21:58;9.57;;;6.68;;
56391;SDS011;42289;53.582;9.714;2022-07-21T11:24:26;7.47;;;5.97;;
56391;SDS011;42289;53.582;9.714;2022-07-21T11:26:54;8.80;;;6.65;;
56391;SDS011;42289;53.582;9.714;2022-07-21T11:29:21;8.38;;;6.70;;
56391;SDS011;42289;53.582;9.714;2022-07-21T11:31:48;9.60;;;6.35;;
56391;SDS011;42289;53.582;9.714;2022-07-21T11:34:15;7.72;;;6.13;;
56391;SDS011;42289;53.582;9.714;2022-07-21T11:36:41;7.95;;;5.82;;
56391;SDS011;42289;53.582;9.714;2022-07-21T11:39:10;6.55;;;5.45;;
56391;SDS011;42289;53.582;9.714;2022-07-21T11:41:38;8.38;;;5.78;;
56391;SDS011;42289;53.582;9.714;2022-07-21T11:44:07;7.35;;;5.90;;
56391;SDS011;42289;53.582;9.714;2022-07-21T11:46:45;7.28;;;5.70;;
56391;SDS011;42289;53.582;9.714;2022-07-21T11:49:12;8.30;;;6.05;;
56391;SDS011;42289;53.582;9.714;2022-07-21T11:51:45;8.35;;;6.00;;
56391;SDS011;42289;53.582;9.714;2022-07-21T11:54:20;8.35;;;5.90;;
56391;SDS011;42289;53.582;9.714;2022-07-21T11:56:51;9.65;;;7.22;;
56391;SDS011;42289;53.582;9.714;2022-07-21T11:59:18;8.18;;;6.63;;
56391;SDS011;42289;53.582;9.714;2022-07-21T12:01:49;7.97;;;6.10;;
56391;SDS011;42289;53.582;9.714;2022-07-21T12:04:30;9.55;;;6.13;;
56391;SDS011;42289;53.582;9.714;2022-07-21T12:07:12;9.65;;;6.53;;
56391;SDS011;42289;53.582;9.714;2022-07-21T12:09:43;7.65;;;5.57;;
56391;SDS011;42289;53.582;9.714;2022-07-21T12:12:11;8.00;;;5.90;;
56391;SDS011;42289;53.582;9.714;2022-07-21T12:14:38;7.15;;;5.15;;
56391;SDS011;42289;53.582;9.714;2022-07-21T12:17:06;7.90;;;5.25;;
56391;SDS011;42289;53.582;9.714;2022-07-21T12:19:32;6.93;;;5.20;;
56391;SDS011;42289;53.582;9.714;2022-07-21T12:21:59;6.40;;;4.82;;
56391;SDS011;42289;53.582;9.714;2022-07-21T12:27:16;6.00;;;4.53;;
56391;SDS011;42289;53.582;9.714;2022-07-21T12:29:44;7.45;;;3.75;;
56391;SDS011;42289;53.582;9.714;2022-07-21T12:32:10;6.18;;;4.07;;
56391;SDS011;42289;53.582;9.714;2022-07-21T12:34:47;6.07;;;3.90;;
56391;SDS011;42289;53.582;9.714;2022-07-21T12:37:14;6.50;;;4.43;;
56391;SDS011;42289;53.582;9.714;2022-07-21T12:39:40;6.95;;;4.57;;
56391;SDS011;42289;53.582;9.714;2022-07-21T12:42:30;7.28;;;4.15;;
56391;SDS011;42289;53.582;9.714;2022-07-21T12:45:00;5.43;;;4.25;;
56391;SDS011;42289;53.582;9.714;2022-07-21T12:47:37;6.28;;;4.32;;
56391;SDS011;42289;53.582;9.714;2022-07-21T12:50:04;7.18;;;4.20;;
56391;SDS011;42289;53.582;9.714;2022-07-21T12:52:32;5.20;;;4.03;;
56391;SDS011;42289;53.582;9.714;2022-07-21T12:54:59;6.10;;;3.75;;
56391;SDS011;42289;53.582;9.714;2022-07-21T12:57:26;6.18;;;3.53;;
56391;SDS011;42289;53.582;9.714;2022-07-21T12:59:55;6.55;;;3.90;;
56391;SDS011;42289;53.582;9.714;2022-07-21T13:02:22;5.57;;;3.90;;
56391;SDS011;42289;53.582;9.714;2022-07-21T13:04:49;6.68;;;3.65;;
56391;SDS011;42289;53.582;9.714;2022-07-21T13:07:15;5.18;;;3.45;;
56391;SDS011;42289;53.582;9.714;2022-07-21T13:09:42;4.78;;;3.53;;
56391;SDS011;42289;53.582;9.714;2022-07-21T13:12:10;4.70;;;3.30;;
56391;SDS011;42289;53.582;9.714;2022-07-21T13:14:37;5.72;;;3.50;;
56391;SDS011;42289;53.582;9.714;2022-07-21T13:17:04;5.97;;;3.72;;
56391;SDS011;42289;53.582;9.714;2022-07-21T13:19:31;4.85;;;3.35;;
56391;SDS011;42289;53.582;9.714;2022-07-21T13:21:57;4.10;;;2.92;;
56391;SDS011;42289;53.582;9.714;2022-07-21T13:24:24;5.70;;;3.30;;
56391;SDS011;42289;53.582;9.714;2022-07-21T13:26:50;5.28;;;3.30;;
56391;SDS011;42289;53.582;9.714;2022-07-21T13:29:17;5.50;;;3.13;;
56391;SDS011;42289;53.582;9.714;2022-07-21T13:31:43;5.18;;;3.17;;
56391;SDS011;42289;53.582;9.714;2022-07-21T13:34:11;4.93;;;3.15;;
56391;SDS011;42289;53.582;9.714;2022-07-21T13:36:38;5.13;;;3.53;;
56391;SDS011;42289;53.582;9.714;2022-07-21T13:39:05;4.07;;;3.00;;
56391;SDS011;42289;53.582;9.714;2022-07-21T13:41:32;5.10;;;3.42;;
56391;SDS011;42289;53.582;9.714;2022-07-21T13:43:59;4.85;;;3.25;;
56391;SDS011;42289;53.582;9.714;2022-07-21T13:46:26;5.47;;;4.07;;
56391;SDS011;42289;53.582;9.714;2022-07-21T13:48:53;4.63;;;3.22;;
56391;SDS011;42289;53.582;9.714;2022-07-21T13:51:21;4.70;;;3.38;;
56391;SDS011;42289;53.582;9.714;2022-07-21T13:53:48;4.10;;;2.83;;
56391;SDS011;42289;53.582;9.714;2022-07-21T13:56:16;4.68;;;3.00;;
56391;SDS011;42289;53.582;9.714;2022-07-21T13:58:43;5.20;;;3.10;;
56391;SDS011;42289;53.582;9.714;2022-07-21T14:01:10;5.00;;;3.00;;
56391;SDS011;42289;53.582;9.714;2022-07-21T14:03:37;4.72;;;2.67;;
56391;SDS011;42289;53.582;9.714;2022-07-21T14:06:04;4.22;;;2.70;;
56391;SDS011;42289;53.582;9.714;2022-07-21T14:08:32;4.00;;;2.60;;
56391;SDS011;42289;53.582;9.714;2022-07-21T14:10:59;5.53;;;3.47;;
56391;SDS011;42289;53.582;9.714;2022-07-21T14:13:25;4.55;;;2.83;;
56391;SDS011;42289;53.582;9.714;2022-07-21T14:15:52;4.15;;;2.90;;
56391;SDS011;42289;53.582;9.714;2022-07-21T14:18:18;5.72;;;3.50;;
56391;SDS011;42289;53.582;9.714;2022-07-21T14:20:45;4.65;;;3.00;;
56391;SDS011;42289;53.582;9.714;2022-07-21T14:23:12;5.85;;;3.45;;
56391;SDS011;42289;53.582;9.714;2022-07-21T14:25:40;4.78;;;3.15;;
56391;SDS011;42289;53.582;9.714;2022-07-21T14:28:07;6.55;;;3.88;;
56391;SDS011;42289;53.582;9.714;2022-07-21T14:30:34;4.13;;;2.70;;
56391;SDS011;42289;53.582;9.714;2022-07-21T14:33:00;5.13;;;2.83;;
56391;SDS011;42289;53.582;9.714;2022-07-21T14:35:27;3.97;;;2.83;;
56391;SDS011;42289;53.582;9.714;2022-07-21T14:37:53;5.75;;;3.35;;
56391;SDS011;42289;53.582;9.714;2022-07-21T14:40:20;4.45;;;2.88;;
56391;SDS011;42289;53.582;9.714;2022-07-21T14:42:49;4.82;;;3.20;;
56391;SDS011;42289;53.582;9.714;2022-07-21T14:45:17;10.57;;;4.60;;
56391;SDS011;42289;53.582;9.714;2022-07-21T14:47:44;13.40;;;5.50;;
56391;SDS011;42289;53.582;9.714;2022-07-21T14:50:12;8.02;;;4.50;;
56391;SDS011;42289;53.582;9.714;2022-07-21T14:52:38;6.88;;;4.60;;
56391;SDS011;42289;53.582;9.714;2022-07-21T14:55:06;5.97;;;4.57;;